Buskirk, New York
Current Conditions -  °F | °C
As of 8:54 AM on Thursday 23 Oct 2014 (Local Time) from KDDH Reporting Station
Light Rain Light Rain  
Wind Chill: 39°   Ceiling: 1000
Heat Index: 43°   Visibility: 4mi
Dew Point: 41°   Wind: 6mph
Humidity: 93%   Direction: 320°NW
Pressure: 29.82"   Gusts: NA
Location:  42.95°N, 73.43°W
Report Text: KDDH 231254Z AUTO 32005KT 4SM -RA BR OVC010 06/05 A2982 RMK AO2 SLP100 P0006 T00610050
Loading
Personal Weather Stations






























Interactive Weather Map
Tropical Storm Tracking
New forecast layout! Learn more

10-Day Weather Forecast

Advertisements
Track Severe Weather on mobile